createdAt,value
2022-12-03T00:00:46.158Z,35.35
2022-12-03T00:03:14.693Z,30.70
2022-12-03T00:05:48.856Z,33.88
2022-12-03T00:08:18.056Z,28.52
2022-12-03T00:10:47.636Z,32.58
2022-12-03T00:13:15.679Z,29.10
2022-12-03T00:15:43.663Z,32.13
2022-12-03T00:18:12.304Z,35.15
2022-12-03T00:20:40.305Z,34.33
2022-12-03T00:23:08.451Z,30.08
2022-12-03T00:25:36.499Z,31.00
2022-12-03T00:28:06.160Z,38.20
2022-12-03T00:30:34.463Z,36.88
2022-12-03T00:33:02.839Z,36.83
2022-12-03T00:35:31.385Z,29.60
2022-12-03T00:37:59.534Z,32.03
2022-12-03T00:40:27.710Z,36.95
2022-12-03T00:42:55.686Z,34.72
2022-12-03T00:45:25.217Z,36.03
2022-12-03T00:47:53.495Z,34.70
2022-12-03T00:50:21.799Z,31.42
2022-12-03T00:52:50.240Z,37.80
2022-12-03T00:55:18.842Z,35.80
2022-12-03T00:57:47.230Z,31.75
2022-12-03T01:00:16.904Z,26.90
2022-12-03T01:02:46.579Z,37.55
2022-12-03T01:05:14.696Z,29.42
2022-12-03T01:07:42.854Z,27.33
2022-12-03T01:10:11.996Z,28.52
2022-12-03T01:12:40.348Z,31.58
2022-12-03T01:15:09.607Z,29.70
2022-12-03T01:17:38.219Z,28.90
2022-12-03T01:20:10.027Z,30.63
2022-12-03T01:22:38.538Z,30.25
2022-12-03T01:25:07.509Z,34.95
2022-12-03T01:27:35.416Z,28.90
2022-12-03T01:30:03.384Z,33.50
2022-12-03T01:32:30.292Z,22.30
2022-12-03T01:34:58.321Z,27.20
2022-12-03T01:37:28.667Z,28.55
2022-12-03T01:39:56.596Z,30.30
2022-12-03T01:42:26.879Z,35.65
2022-12-03T01:44:57.193Z,33.05
2022-12-03T01:47:28.569Z,34.35
2022-12-03T01:50:00.973Z,28.40
2022-12-03T01:52:33.398Z,29.02
2022-12-03T01:55:03.394Z,37.60
2022-12-03T01:57:36.476Z,39.03
2022-12-03T02:00:05.693Z,31.77
2022-12-03T02:02:34.470Z,31.00
2022-12-03T02:05:07.884Z,38.75
2022-12-03T02:07:37.298Z,34.45
2022-12-03T02:10:06.084Z,28.75
2022-12-03T02:12:37.853Z,37.55
2022-12-03T02:15:08.198Z,36.63
2022-12-03T02:17:37.138Z,35.50
2022-12-03T02:20:07.770Z,36.92
2022-12-03T02:22:44.377Z,40.90
2022-12-03T02:25:25.656Z,34.90
2022-12-03T02:27:55.154Z,39.20
2022-12-03T02:30:24.968Z,36.20
2022-12-03T02:32:54.238Z,43.75
2022-12-03T02:35:24.278Z,33.47
2022-12-03T02:37:59.311Z,33.97
2022-12-03T02:40:32.164Z,32.97
2022-12-03T02:43:01.347Z,27.42
2022-12-03T02:45:32.637Z,39.63
2022-12-03T02:48:04.252Z,33.58
2022-12-03T02:50:34.920Z,37.10
2022-12-03T02:53:06.707Z,29.75
2022-12-03T02:55:37.671Z,32.53
2022-12-03T02:58:06.677Z,31.25
2022-12-03T03:00:36.359Z,32.35
2022-12-03T03:03:06.011Z,30.98
2022-12-03T03:05:36.968Z,33.92
2022-12-03T03:08:06.567Z,31.48
2022-12-03T03:10:38.800Z,26.98
2022-12-03T03:13:11.363Z,33.67
2022-12-03T03:15:40.518Z,30.92
2022-12-03T03:18:10.068Z,23.98
2022-12-03T03:20:38.721Z,28.70
2022-12-03T03:23:14.161Z,36.22
2022-12-03T03:25:47.676Z,24.27
2022-12-03T03:28:16.969Z,27.23
2022-12-03T03:30:45.380Z,31.15
2022-12-03T03:33:14.526Z,28.70
2022-12-03T03:35:44.411Z,26.30
2022-12-03T03:38:12.942Z,26.70
2022-12-03T03:40:41.256Z,37.17
2022-12-03T03:43:11.637Z,30.50
2022-12-03T03:45:40.220Z,25.98
2022-12-03T03:48:08.469Z,32.83
2022-12-03T03:50:36.968Z,25.05
2022-12-03T03:53:06.447Z,24.55
2022-12-03T03:55:35.085Z,28.10
2022-12-03T03:58:03.239Z,30.48
2022-12-03T04:00:33.238Z,29.42
2022-12-03T04:03:01.552Z,29.85
2022-12-03T04:05:29.649Z,25.63
2022-12-03T04:07:58.898Z,23.98
2022-12-03T04:10:44.798Z,26.58
2022-12-03T04:13:13.253Z,21.15
2022-12-03T04:15:42.823Z,28.95
2022-12-03T04:18:28.491Z,28.38
2022-12-03T04:21:17.267Z,26.60
2022-12-03T04:23:44.567Z,27.55
2022-12-03T04:26:29.966Z,23.73
2022-12-03T04:28:58.093Z,25.05
2022-12-03T04:31:45.052Z,26.13
2022-12-03T04:34:30.651Z,24.20
2022-12-03T04:36:59.295Z,28.65
2022-12-03T04:39:27.464Z,26.67
2022-12-03T04:41:55.601Z,28.38
2022-12-03T04:44:38.876Z,26.27
2022-12-03T04:47:10.791Z,22.77
2022-12-03T04:49:41.175Z,29.45
2022-12-03T04:52:09.891Z,25.63
2022-12-03T04:54:38.822Z,31.02
2022-12-03T04:57:07.948Z,23.00
2022-12-03T04:59:36.366Z,24.05
2022-12-03T05:02:06.096Z,28.33
2022-12-03T05:04:35.875Z,25.52
2022-12-03T05:07:04.082Z,23.23
2022-12-03T05:09:33.595Z,24.10
2022-12-03T05:12:01.775Z,25.58
2022-12-03T05:14:29.984Z,25.55
2022-12-03T05:16:58.260Z,28.15
2022-12-03T05:19:46.688Z,27.77
2022-12-03T05:22:15.102Z,34.88
2022-12-03T05:24:43.347Z,35.10
2022-12-03T05:27:11.296Z,30.50
2022-12-03T05:29:39.260Z,31.13
2022-12-03T05:32:07.664Z,36.13
2022-12-03T05:34:35.587Z,31.70
2022-12-03T05:37:03.484Z,34.72
2022-12-03T05:39:33.063Z,39.42
2022-12-03T05:42:18.464Z,36.10
2022-12-03T05:44:46.502Z,42.65
2022-12-03T05:47:14.541Z,40.47
2022-12-03T05:49:42.535Z,34.55
2022-12-03T05:52:10.403Z,48.40
2022-12-03T05:54:39.858Z,37.25
2022-12-03T05:57:08.116Z,40.13
2022-12-03T05:59:36.132Z,43.30
2022-12-03T06:02:04.191Z,42.80
2022-12-03T06:04:32.319Z,41.25
2022-12-03T06:07:00.374Z,48.15
2022-12-03T06:09:28.525Z,36.25
2022-12-03T06:11:57.796Z,41.50
2022-12-03T06:14:25.944Z,39.33
2022-12-03T06:16:54.132Z,46.10
2022-12-03T06:19:22.182Z,52.50
2022-12-03T06:21:50.112Z,38.45
2022-12-03T06:24:17.946Z,46.63
2022-12-03T06:26:46.035Z,36.17
2022-12-03T06:29:15.533Z,45.60
2022-12-03T06:31:43.523Z,45.58
2022-12-03T06:34:11.637Z,38.72
2022-12-03T06:36:39.640Z,43.78
2022-12-03T06:39:07.783Z,42.92
2022-12-03T06:41:36.090Z,56.85
2022-12-03T06:44:04.181Z,43.40
2022-12-03T06:46:33.627Z,50.35
2022-12-03T06:49:01.762Z,41.58
2022-12-03T06:51:29.735Z,43.28
2022-12-03T06:53:57.684Z,46.65
2022-12-03T06:56:31.102Z,42.40
2022-12-03T06:59:02.491Z,38.22
2022-12-03T07:01:30.715Z,49.30
2022-12-03T07:04:00.144Z,46.13
2022-12-03T07:06:28.051Z,46.55
2022-12-03T07:08:56.117Z,45.55
2022-12-03T07:11:32.852Z,45.10
2022-12-03T07:14:05.479Z,45.53
2022-12-03T07:16:34.782Z,46.65
2022-12-03T07:19:05.085Z,40.55
2022-12-03T07:21:33.503Z,40.47
2022-12-03T07:24:01.968Z,50.20
2022-12-03T07:26:29.957Z,42.40
2022-12-03T07:28:58.235Z,43.92
2022-12-03T07:31:26.772Z,41.70
2022-12-03T07:33:56.485Z,38.63
2022-12-03T07:36:26.439Z,46.00
2022-12-03T07:38:54.787Z,50.15
2022-12-03T07:41:22.928Z,47.75
2022-12-03T07:43:51.186Z,48.65
2022-12-03T07:46:20.432Z,46.53
2022-12-03T07:48:57.226Z,52.05
2022-12-03T07:51:44.613Z,39.35
2022-12-03T07:54:15.975Z,44.35
2022-12-03T07:56:51.041Z,40.95
2022-12-03T07:59:21.221Z,53.28
2022-12-03T08:01:49.658Z,49.80
2022-12-03T08:04:22.863Z,50.35
2022-12-03T08:06:52.532Z,42.75
2022-12-03T08:09:21.306Z,44.10
2022-12-03T08:11:51.308Z,48.25
2022-12-03T08:14:21.569Z,44.50
2022-12-03T08:16:50.330Z,45.55
2022-12-03T08:19:19.698Z,43.40
2022-12-03T08:21:48.617Z,49.78
2022-12-03T08:24:21.649Z,50.80
2022-12-03T08:26:50.903Z,41.70
2022-12-03T08:29:21.107Z,45.58
2022-12-03T08:31:52.288Z,42.28
2022-12-03T08:34:22.524Z,47.28
2022-12-03T08:36:53.422Z,54.45
2022-12-03T08:39:34.315Z,56.70
2022-12-03T08:42:30.907Z,58.35
2022-12-03T08:45:17.733Z,49.83
2022-12-03T08:47:45.990Z,49.33
2022-12-03T08:50:28.330Z,47.45
2022-12-03T08:53:00.910Z,47.15
2022-12-03T08:55:36.937Z,49.75
2022-12-03T08:58:19.690Z,52.67
2022-12-03T09:00:48.409Z,53.35
2022-12-03T09:03:20.012Z,48.78
2022-12-03T09:05:48.085Z,53.00
2022-12-03T09:08:16.471Z,57.60
2022-12-03T09:10:45.955Z,44.20
2022-12-03T09:13:14.003Z,47.05
2022-12-03T09:15:42.470Z,62.30
2022-12-03T09:18:10.540Z,49.13
2022-12-03T09:20:38.556Z,47.28
2022-12-03T09:23:06.841Z,42.30
2022-12-03T09:25:34.846Z,44.90
2022-12-03T09:28:04.502Z,46.15
2022-12-03T09:30:33.562Z,53.80
2022-12-03T09:33:01.444Z,52.60
2022-12-03T09:35:29.339Z,46.03
2022-12-03T09:37:57.222Z,57.15
2022-12-03T09:40:25.390Z,55.35
2022-12-03T09:42:53.336Z,46.72
2022-12-03T09:45:22.698Z,55.75
2022-12-03T09:47:51.403Z,45.88
2022-12-03T09:50:23.093Z,45.92
2022-12-03T09:52:54.790Z,45.97
2022-12-03T09:55:25.237Z,53.78
2022-12-03T09:57:53.778Z,51.13
2022-12-03T10:00:25.605Z,49.85
2022-12-03T10:02:56.099Z,52.25
2022-12-03T10:05:24.887Z,66.00
2022-12-03T10:07:54.077Z,45.65
2022-12-03T10:10:25.274Z,54.00
2022-12-03T10:12:54.549Z,49.35
2022-12-03T10:15:27.241Z,46.88
2022-12-03T10:17:57.244Z,49.78
2022-12-03T10:20:27.415Z,46.00
2022-12-03T10:23:01.180Z,48.53
2022-12-03T10:25:29.535Z,49.05
2022-12-03T10:28:00.184Z,50.40
2022-12-03T10:30:30.180Z,47.10
2022-12-03T10:33:02.583Z,47.42
2022-12-03T10:35:39.543Z,50.25
2022-12-03T10:38:08.965Z,48.72
2022-12-03T10:40:39.222Z,54.63
2022-12-03T10:43:33.503Z,45.20
2022-12-03T10:46:13.985Z,49.75
2022-12-03T10:49:07.072Z,56.03
2022-12-03T10:51:35.260Z,47.17
2022-12-03T10:54:05.562Z,44.35
2022-12-03T10:56:33.737Z,52.60
2022-12-03T10:59:01.802Z,50.33
2022-12-03T11:01:33.136Z,50.88
2022-12-03T11:04:06.960Z,47.15
2022-12-03T11:06:35.131Z,51.03
2022-12-03T11:09:08.808Z,46.25
2022-12-03T11:11:37.392Z,48.45
2022-12-03T11:14:05.845Z,49.85
2022-12-03T11:17:07.646Z,47.47
2022-12-03T11:20:01.348Z,47.78
2022-12-03T11:22:41.225Z,51.42
2022-12-03T11:26:13.038Z,48.42
2022-12-03T11:29:03.505Z,46.72
2022-12-03T11:38:53.000Z,44.80
2022-12-03T22:21:34.111Z,42.22
2022-12-03T22:24:04.753Z,41.65
2022-12-03T22:26:36.007Z,44.40
